sensor_id;sensor_type;location;lat;lon;timestamp;pressure;altitude;pressure_sealevel;temperature;humidity
76987;BME280;65922;50.086;8.598;2023-03-01T00:00:52;101900;;;-0.7;72.1
76987;BME280;65922;50.086;8.598;2023-03-01T00:01:52;101900;;;-0.6;71.7
76987;BME280;65922;50.086;8.598;2023-03-01T00:02:52;101890;;;-0.4;70.9
76987;BME280;65922;50.086;8.598;2023-03-01T00:03:53;101900;;;-0.5;71.3
76987;BME280;65922;50.086;8.598;2023-03-01T00:04:52;101900;;;-0.6;71.5
76987;BME280;65922;50.086;8.598;2023-03-01T00:05:52;101890;;;-0.5;71.2
76987;BME280;65922;50.086;8.598;2023-03-01T00:06:52;101900;;;-0.7;71.9
76987;BME280;65922;50.086;8.598;2023-03-01T00:07:52;101900;;;-0.6;71.9
76987;BME280;65922;50.086;8.598;2023-03-01T00:08:52;101900;;;-0.6;71.6
76987;BME280;65922;50.086;8.598;2023-03-01T00:09:52;101900;;;-0.7;72.3
76987;BME280;65922;50.086;8.598;2023-03-01T00:10:59;101900;;;-0.7;72.1
76987;BME280;65922;50.086;8.598;2023-03-01T00:11:52;101900;;;-0.6;72.1
76987;BME280;65922;50.086;8.598;2023-03-01T00:12:52;101900;;;-0.6;71.8
76987;BME280;65922;50.086;8.598;2023-03-01T00:13:53;101900;;;-0.7;72
76987;BME280;65922;50.086;8.598;2023-03-01T00:14:52;101900;;;-0.8;72.1
76987;BME280;65922;50.086;8.598;2023-03-01T00:15:52;101890;;;-0.7;72.3
76987;BME280;65922;50.086;8.598;2023-03-01T00:16:53;101890;;;-0.5;71.4
76987;BME280;65922;50.086;8.598;2023-03-01T00:17:52;101900;;;-0.5;71.2
76987;BME280;65922;50.086;8.598;2023-03-01T00:18:53;101900;;;-0.5;71.3
76987;BME280;65922;50.086;8.598;2023-03-01T00:19:52;101900;;;-0.5;71.2
76987;BME280;65922;50.086;8.598;2023-03-01T00:20:53;101890;;;-0.5;71.3
76987;BME280;65922;50.086;8.598;2023-03-01T00:21:52;101900;;;-0.6;72.1
76987;BME280;65922;50.086;8.598;2023-03-01T00:22:52;101900;;;-0.6;71.6
76987;BME280;65922;50.086;8.598;2023-03-01T00:23:53;101900;;;-0.5;71.5
76987;BME280;65922;50.086;8.598;2023-03-01T00:24:52;101890;;;-0.7;72.1
76987;BME280;65922;50.086;8.598;2023-03-01T00:25:52;101910;;;-0.7;72
76987;BME280;65922;50.086;8.598;2023-03-01T00:27:02;101900;;;-0.6;71.7
76987;BME280;65922;50.086;8.598;2023-03-01T00:27:57;101900;;;-0.6;71.9
76987;BME280;65922;50.086;8.598;2023-03-01T00:28:56;101900;;;-0.8;72.5
76987;BME280;65922;50.086;8.598;2023-03-01T00:29:56;101890;;;-0.7;72.5
76987;BME280;65922;50.086;8.598;2023-03-01T00:30:56;101890;;;-0.7;72.3
76987;BME280;65922;50.086;8.598;2023-03-01T00:31:56;101900;;;-0.7;72.4
76987;BME280;65922;50.086;8.598;2023-03-01T00:32:56;101890;;;-0.6;71.9
76987;BME280;65922;50.086;8.598;2023-03-01T00:33:57;101890;;;-0.6;71.8
76987;BME280;65922;50.086;8.598;2023-03-01T00:34:56;101890;;;-0.7;72
76987;BME280;65922;50.086;8.598;2023-03-01T00:35:57;101880;;;-0.6;72
76987;BME280;65922;50.086;8.598;2023-03-01T00:36:56;101880;;;-0.6;71.8
76987;BME280;65922;50.086;8.598;2023-03-01T00:37:56;101880;;;-0.7;72.2
76987;BME280;65922;50.086;8.598;2023-03-01T00:38:56;101880;;;-0.6;71.8
76987;BME280;65922;50.086;8.598;2023-03-01T00:39:56;101880;;;-0.6;71.8
76987;BME280;65922;50.086;8.598;2023-03-01T00:41:02;101870;;;-0.7;71.8
76987;BME280;65922;50.086;8.598;2023-03-01T00:41:56;101870;;;-0.6;72
76987;BME280;65922;50.086;8.598;2023-03-01T00:42:56;101880;;;-0.6;72.2
76987;BME280;65922;50.086;8.598;2023-03-01T00:43:56;101870;;;-0.8;72.7
76987;BME280;65922;50.086;8.598;2023-03-01T00:44:56;101870;;;-0.7;72.4
76987;BME280;65922;50.086;8.598;2023-03-01T00:45:59;101880;;;-0.6;72.2
76987;BME280;65922;50.086;8.598;2023-03-01T00:46:56;101870;;;-0.6;72
76987;BME280;65922;50.086;8.598;2023-03-01T00:47:56;101870;;;-0.6;71.8
76987;BME280;65922;50.086;8.598;2023-03-01T00:48:56;101860;;;-0.4;71.6
76987;BME280;65922;50.086;8.598;2023-03-01T00:49:56;101870;;;-0.6;72
76987;BME280;65922;50.086;8.598;2023-03-01T00:50:56;101860;;;-0.5;71.8
76987;BME280;65922;50.086;8.598;2023-03-01T00:51:56;101860;;;-0.6;71.9
76987;BME280;65922;50.086;8.598;2023-03-01T00:52:56;101860;;;-0.6;72
76987;BME280;65922;50.086;8.598;2023-03-01T00:53:57;101860;;;-0.7;72.4
76987;BME280;65922;50.086;8.598;2023-03-01T00:54:56;101870;;;-0.7;72.6
76987;BME280;65922;50.086;8.598;2023-03-01T00:56:02;101860;;;-0.8;73
76987;BME280;65922;50.086;8.598;2023-03-01T00:56:56;101860;;;-0.8;73.3
76987;BME280;65922;50.086;8.598;2023-03-01T00:57:56;101870;;;-0.8;73
76987;BME280;65922;50.086;8.598;2023-03-01T00:58:56;101860;;;-0.6;72.4
76987;BME280;65922;50.086;8.598;2023-03-01T00:59:56;101860;;;-0.8;72.9
76987;BME280;65922;50.086;8.598;2023-03-01T01:00:56;101860;;;-0.8;72.8
76987;BME280;65922;50.086;8.598;2023-03-01T01:01:56;101860;;;-0.7;72.7
76987;BME280;65922;50.086;8.598;2023-03-01T01:02:56;101860;;;-0.7;72.3
76987;BME280;65922;50.086;8.598;2023-03-01T01:03:56;101860;;;-0.7;72.5
76987;BME280;65922;50.086;8.598;2023-03-01T01:04:56;101870;;;-0.6;72.3
76987;BME280;65922;50.086;8.598;2023-03-01T01:05:56;101860;;;-0.8;72.6
76987;BME280;65922;50.086;8.598;2023-03-01T01:06:56;101870;;;-0.8;72.6
76987;BME280;65922;50.086;8.598;2023-03-01T01:07:56;101860;;;-0.8;72.7
76987;BME280;65922;50.086;8.598;2023-03-01T01:08:56;101860;;;-0.8;73
76987;BME280;65922;50.086;8.598;2023-03-01T01:09:56;101860;;;-0.8;72.8
76987;BME280;65922;50.086;8.598;2023-03-01T01:10:56;101860;;;-0.9;73.8
76987;BME280;65922;50.086;8.598;2023-03-01T01:11:56;101850;;;-1.1;74.7
76987;BME280;65922;50.086;8.598;2023-03-01T01:12:56;101850;;;-1;73.9
76987;BME280;65922;50.086;8.598;2023-03-01T01:13:56;101850;;;-1;74.1
76987;BME280;65922;50.086;8.598;2023-03-01T01:14:56;101850;;;-0.9;73.7
76987;BME280;65922;50.086;8.598;2023-03-01T01:15:59;101850;;;-1.1;74.7
76987;BME280;65922;50.086;8.598;2023-03-01T01:16:56;101850;;;-1.5;75.3
76987;BME280;65922;50.086;8.598;2023-03-01T01:17:56;101850;;;-1.6;76
76987;BME280;65922;50.086;8.598;2023-03-01T01:18:56;101850;;;-1.7;76.6
76987;BME280;65922;50.086;8.598;2023-03-01T01:19:56;101850;;;-1.8;77.1
76987;BME280;65922;50.086;8.598;2023-03-01T01:20:56;101830;;;-1.9;77.7
76987;BME280;65922;50.086;8.598;2023-03-01T01:21:56;101840;;;-1.9;78
76987;BME280;65922;50.086;8.598;2023-03-01T01:22:56;101830;;;-1.1;75.5
76987;BME280;65922;50.086;8.598;2023-03-01T01:23:56;101830;;;-1.1;74.7
76987;BME280;65922;50.086;8.598;2023-03-01T01:24:56;101830;;;-1.1;74.9
76987;BME280;65922;50.086;8.598;2023-03-01T01:25:56;101830;;;-0.9;74.2
76987;BME280;65922;50.086;8.598;2023-03-01T01:26:56;101830;;;-1.1;74.6
76987;BME280;65922;50.086;8.598;2023-03-01T01:27:56;101830;;;-1;74.5
76987;BME280;65922;50.086;8.598;2023-03-01T01:28:56;101820;;;-1;74.1
76987;BME280;65922;50.086;8.598;2023-03-01T01:29:56;101820;;;-1.1;74.8
76987;BME280;65922;50.086;8.598;2023-03-01T01:30:56;101820;;;-0.9;74
76987;BME280;65922;50.086;8.598;2023-03-01T01:31:56;101820;;;-0.8;73.6
76987;BME280;65922;50.086;8.598;2023-03-01T01:32:56;101810;;;-0.8;73.3
76987;BME280;65922;50.086;8.598;2023-03-01T01:33:59;101810;;;-0.8;73.5
76987;BME280;65922;50.086;8.598;2023-03-01T01:34:56;101800;;;-0.8;73.4
76987;BME280;65922;50.086;8.598;2023-03-01T01:35:56;101800;;;-0.7;72.8
76987;BME280;65922;50.086;8.598;2023-03-01T01:36:56;101800;;;-0.8;73.2
76987;BME280;65922;50.086;8.598;2023-03-01T01:37:56;101790;;;-0.8;73.1
76987;BME280;65922;50.086;8.598;2023-03-01T01:38:56;101800;;;-0.8;73.2
76987;BME280;65922;50.086;8.598;2023-03-01T01:39:56;101800;;;-0.7;72.8
76987;BME280;65922;50.086;8.598;2023-03-01T01:40:56;101800;;;-0.9;73.5
76987;BME280;65922;50.086;8.598;2023-03-01T01:41:56;101800;;;-0.7;73
76987;BME280;65922;50.086;8.598;2023-03-01T01:42:56;101800;;;-0.7;72.9
76987;BME280;65922;50.086;8.598;2023-03-01T01:44:12;101800;;;-0.6;72.6
76987;BME280;65922;50.086;8.598;2023-03-01T01:45:30;101790;;;-0.6;72.5
76987;BME280;65922;50.086;8.598;2023-03-01T01:45:56;101790;;;-0.6;72.5
76987;BME280;65922;50.086;8.598;2023-03-01T01:46:57;101790;;;-0.6;72.3
76987;BME280;65922;50.086;8.598;2023-03-01T01:47:57;101800;;;-0.6;72.5
76987;BME280;65922;50.086;8.598;2023-03-01T01:48:57;101800;;;-0.6;72.3
76987;BME280;65922;50.086;8.598;2023-03-01T01:49:56;101810;;;-0.6;72
76987;BME280;65922;50.086;8.598;2023-03-01T01:50:57;101810;;;-0.5;72.1
76987;BME280;65922;50.086;8.598;2023-03-01T01:52:00;101810;;;-0.5;71.9
76987;BME280;65922;50.086;8.598;2023-03-01T01:52:56;101800;;;-0.5;71.9
76987;BME280;65922;50.086;8.598;2023-03-01T01:53:58;101810;;;-0.5;71.9
76987;BME280;65922;50.086;8.598;2023-03-01T01:54:57;101810;;;-0.6;72.3
76987;BME280;65922;50.086;8.598;2023-03-01T01:55:57;101820;;;-0.6;72.1
76987;BME280;65922;50.086;8.598;2023-03-01T01:56:56;101810;;;-0.5;71.9
76987;BME280;65922;50.086;8.598;2023-03-01T01:57:57;101810;;;-0.6;72.1
76987;BME280;65922;50.086;8.598;2023-03-01T01:58:56;101810;;;-0.6;72.3
76987;BME280;65922;50.086;8.598;2023-03-01T01:59:57;101810;;;-0.6;72.2
76987;BME280;65922;50.086;8.598;2023-03-01T02:00:56;101820;;;-0.6;72.4
76987;BME280;65922;50.086;8.598;2023-03-01T02:01:56;101810;;;-0.5;71.8
76987;BME280;65922;50.086;8.598;2023-03-01T02:02:56;101810;;;-0.4;71.5
76987;BME280;65922;50.086;8.598;2023-03-01T02:03:56;101810;;;-0.4;71.4
76987;BME280;65922;50.086;8.598;2023-03-01T02:04:58;101810;;;-0.4;71.6
76987;BME280;65922;50.086;8.598;2023-03-01T02:05:57;101810;;;-0.5;71.8
76987;BME280;65922;50.086;8.598;2023-03-01T02:06:57;101810;;;-0.5;71.8
76987;BME280;65922;50.086;8.598;2023-03-01T02:07:56;101810;;;-0.5;71.8
76987;BME280;65922;50.086;8.598;2023-03-01T02:08:57;101810;;;-0.6;72.2
76987;BME280;65922;50.086;8.598;2023-03-01T02:09:56;101810;;;-0.5;71.9
76987;BME280;65922;50.086;8.598;2023-03-01T02:10:56;101810;;;-0.6;72.2
76987;BME280;65922;50.086;8.598;2023-03-01T02:11:56;101810;;;-0.5;72.1
76987;BME280;65922;50.086;8.598;2023-03-01T02:12:56;101810;;;-0.5;72
76987;BME280;65922;50.086;8.598;2023-03-01T02:13:56;101820;;;-0.5;71.9
76987;BME280;65922;50.086;8.598;2023-03-01T02:14:56;101810;;;-0.5;72.1
76987;BME280;65922;50.086;8.598;2023-03-01T02:15:56;101810;;;-0.5;71.9
76987;BME280;65922;50.086;8.598;2023-03-01T02:16:56;101820;;;-0.5;71.8
76987;BME280;65922;50.086;8.598;2023-03-01T02:17:56;101810;;;-0.6;72.2
76987;BME280;65922;50.086;8.598;2023-03-01T02:18:56;101820;;;-0.6;72.3
76987;BME280;65922;50.086;8.598;2023-03-01T02:19:59;101820;;;-0.6;72.3
76987;BME280;65922;50.086;8.598;2023-03-01T02:21:00;101810;;;-0.5;72.1
76987;BME280;65922;50.086;8.598;2023-03-01T02:21:58;101810;;;-0.5;72
76987;BME280;65922;50.086;8.598;2023-03-01T02:22:56;101800;;;-0.5;72
76987;BME280;65922;50.086;8.598;2023-03-01T02:23:56;101800;;;-0.5;72.3
76987;BME280;65922;50.086;8.598;2023-03-01T02:24:59;101800;;;-0.5;72
76987;BME280;65922;50.086;8.598;2023-03-01T02:25:57;101800;;;-0.5;72
76987;BME280;65922;50.086;8.598;2023-03-01T02:26:56;101800;;;-0.4;71.7
76987;BME280;65922;50.086;8.598;2023-03-01T02:27:57;101800;;;-0.5;72
76987;BME280;65922;50.086;8.598;2023-03-01T02:28:56;101790;;;-0.4;71.9
76987;BME280;65922;50.086;8.598;2023-03-01T02:29:56;101790;;;-0.4;71.6
76987;BME280;65922;50.086;8.598;2023-03-01T02:30:56;101790;;;-0.5;72.3
76987;BME280;65922;50.086;8.598;2023-03-01T02:31:56;101790;;;-0.5;72
76987;BME280;65922;50.086;8.598;2023-03-01T02:32:56;101790;;;-0.6;72.3
76987;BME280;65922;50.086;8.598;2023-03-01T02:33:56;101790;;;-0.6;72.4
76987;BME280;65922;50.086;8.598;2023-03-01T02:34:56;101790;;;-0.6;72.5
76987;BME280;65922;50.086;8.598;2023-03-01T02:35:56;101790;;;-0.5;72.1
76987;BME280;65922;50.086;8.598;2023-03-01T02:36:56;101790;;;-0.5;72.3
76987;BME280;65922;50.086;8.598;2023-03-01T02:37:56;101790;;;-0.6;72.3
76987;BME280;65922;50.086;8.598;2023-03-01T02:38:57;101790;;;-0.6;72.5
76987;BME280;65922;50.086;8.598;2023-03-01T02:39:57;101790;;;-0.7;72.9
76987;BME280;65922;50.086;8.598;2023-03-01T02:40:56;101780;;;-0.8;73.3
76987;BME280;65922;50.086;8.598;2023-03-01T02:41:56;101780;;;-0.6;73
76987;BME280;65922;50.086;8.598;2023-03-01T02:42:56;101780;;;-0.6;73
76987;BME280;65922;50.086;8.598;2023-03-01T02:43:56;101780;;;-0.8;73.4
76987;BME280;65922;50.086;8.598;2023-03-01T02:44:56;101780;;;-0.7;73.3
76987;BME280;65922;50.086;8.598;2023-03-01T02:45:57;101780;;;-0.7;73.1
76987;BME280;65922;50.086;8.598;2023-03-01T02:46:56;101770;;;-0.7;73.1
76987;BME280;65922;50.086;8.598;2023-03-01T02:47:56;101770;;;-0.7;72.9
76987;BME280;65922;50.086;8.598;2023-03-01T02:48:56;101770;;;-0.7;72.8
76987;BME280;65922;50.086;8.598;2023-03-01T02:49:56;101770;;;-0.6;72.7
76987;BME280;65922;50.086;8.598;2023-03-01T02:51:02;101760;;;-0.6;72.7
76987;BME280;65922;50.086;8.598;2023-03-01T02:52:01;101770;;;-0.7;72.9
76987;BME280;65922;50.086;8.598;2023-03-01T02:52:56;101760;;;-0.6;72.6
76987;BME280;65922;50.086;8.598;2023-03-01T02:53:58;101760;;;-0.6;72.8
76987;BME280;65922;50.086;8.598;2023-03-01T02:54:57;101760;;;-0.6;72.5
76987;BME280;65922;50.086;8.598;2023-03-01T02:55:56;101760;;;-0.7;72.7
76987;BME280;65922;50.086;8.598;2023-03-01T02:56:56;101760;;;-0.8;73.3
76987;BME280;65922;50.086;8.598;2023-03-01T02:57:56;101760;;;-0.7;72.9
76987;BME280;65922;50.086;8.598;2023-03-01T02:58:56;101750;;;-0.6;72.6
76987;BME280;65922;50.086;8.598;2023-03-01T02:59:56;101750;;;-0.7;72.7
76987;BME280;65922;50.086;8.598;2023-03-01T03:00:56;101750;;;-0.7;72.9
76987;BME280;65922;50.086;8.598;2023-03-01T03:01:56;101750;;;-0.6;72.1
76987;BME280;65922;50.086;8.598;2023-03-01T03:02:56;101750;;;-0.7;72.6
76987;BME280;65922;50.086;8.598;2023-03-01T03:03:56;101740;;;-0.7;72.7
76987;BME280;65922;50.086;8.598;2023-03-01T03:04:56;101740;;;-0.6;72.6
76987;BME280;65922;50.086;8.598;2023-03-01T03:05:56;101750;;;-0.7;72.8
76987;BME280;65922;50.086;8.598;2023-03-01T03:06:56;101740;;;-0.8;73.4
76987;BME280;65922;50.086;8.598;2023-03-01T03:07:57;101750;;;-0.8;73.4
76987;BME280;65922;50.086;8.598;2023-03-01T03:08:56;101750;;;-0.5;72.1
76987;BME280;65922;50.086;8.598;2023-03-01T03:09:56;101740;;;-0.6;72.3
76987;BME280;65922;50.086;8.598;2023-03-01T03:10:56;101740;;;-0.7;72.8
76987;BME280;65922;50.086;8.598;2023-03-01T03:11:56;101740;;;-0.7;73
76987;BME280;65922;50.086;8.598;2023-03-01T03:12:57;101740;;;-0.7;73
76987;BME280;65922;50.086;8.598;2023-03-01T03:13:56;101740;;;-0.6;72.7
76987;BME280;65922;50.086;8.598;2023-03-01T03:14:56;101740;;;-0.6;72.8
76987;BME280;65922;50.086;8.598;2023-03-01T03:15:56;101730;;;-0.7;72.9
76987;BME280;65922;50.086;8.598;2023-03-01T03:16:56;101730;;;-0.6;72.3
76987;BME280;65922;50.086;8.598;2023-03-01T03:17:56;101730;;;-0.6;72.2
76987;BME280;65922;50.086;8.598;2023-03-01T03:18:56;101730;;;-0.6;72.4
76987;BME280;65922;50.086;8.598;2023-03-01T03:19:56;101710;;;-0.6;72.4
76987;BME280;65922;50.086;8.598;2023-03-01T03:20:56;101730;;;-0.6;72.4
76987;BME280;65922;50.086;8.598;2023-03-01T03:21:56;101730;;;-0.6;72.5
76987;BME280;65922;50.086;8.598;2023-03-01T03:22:56;101730;;;-0.6;72.2
76987;BME280;65922;50.086;8.598;2023-03-01T03:23:56;101720;;;-0.5;71.6
76987;BME280;65922;50.086;8.598;2023-03-01T03:24:56;101720;;;-0.5;71.7
76987;BME280;65922;50.086;8.598;2023-03-01T03:25:56;101720;;;-0.6;71.9
76987;BME280;65922;50.086;8.598;2023-03-01T03:26:56;101720;;;-0.5;71.7
76987;BME280;65922;50.086;8.598;2023-03-01T03:27:56;101710;;;-0.5;71.4
76987;BME280;65922;50.086;8.598;2023-03-01T03:28:56;101720;;;-0.6;72
76987;BME280;65922;50.086;8.598;2023-03-01T03:29:56;101720;;;-0.5;71.7
76987;BME280;65922;50.086;8.598;2023-03-01T03:30:56;101720;;;-0.5;71.3
76987;BME280;65922;50.086;8.598;2023-03-01T03:31:56;101730;;;-0.6;72
76987;BME280;65922;50.086;8.598;2023-03-01T03:32:56;101720;;;-0.6;72.1
76987;BME280;65922;50.086;8.598;2023-03-01T03:33:56;101710;;;-0.6;71.8
76987;BME280;65922;50.086;8.598;2023-03-01T03:34:56;101720;;;-0.6;71.7
76987;BME280;65922;50.086;8.598;2023-03-01T03:35:56;101720;;;-0.7;72.2
76987;BME280;65922;50.086;8.598;2023-03-01T03:36:56;101720;;;-0.7;72.2
76987;BME280;65922;50.086;8.598;2023-03-01T03:37:57;101720;;;-0.6;72.2
76987;BME280;65922;50.086;8.598;2023-03-01T03:38:56;101710;;;-0.6;72.1
76987;BME280;65922;50.086;8.598;2023-03-01T03:39:56;101710;;;-0.5;71.6
76987;BME280;65922;50.086;8.598;2023-03-01T03:41:00;101710;;;-0.6;72
76987;BME280;65922;50.086;8.598;2023-03-01T03:41:56;101710;;;-0.6;71.8
76987;BME280;65922;50.086;8.598;2023-03-01T03:42:56;101710;;;-0.6;71.9
76987;BME280;65922;50.086;8.598;2023-03-01T03:43:56;101700;;;-0.7;72.1
76987;BME280;65922;50.086;8.598;2023-03-01T03:44:56;101710;;;-0.7;72.3
76987;BME280;65922;50.086;8.598;2023-03-01T03:45:56;101700;;;-0.5;71.6
76987;BME280;65922;50.086;8.598;2023-03-01T03:46:56;101710;;;-0.6;71.8
76987;BME280;65922;50.086;8.598;2023-03-01T03:47:56;101700;;;-0.7;72.3
76987;BME280;65922;50.086;8.598;2023-03-01T03:48:56;101710;;;-0.7;72.3
76987;BME280;65922;50.086;8.598;2023-03-01T03:49:56;101700;;;-0.6;72
76987;BME280;65922;50.086;8.598;2023-03-01T03:50:56;101700;;;-0.7;72.4
76987;BME280;65922;50.086;8.598;2023-03-01T03:51:56;101700;;;-0.7;72.4
76987;BME280;65922;50.086;8.598;2023-03-01T03:52:56;101710;;;-0.7;72.4
76987;BME280;65922;50.086;8.598;2023-03-01T03:53:56;101700;;;-0.7;72.4
76987;BME280;65922;50.086;8.598;2023-03-01T03:54:56;101710;;;-0.7;72.4
76987;BME280;65922;50.086;8.598;2023-03-01T03:55:56;101700;;;-0.8;72.6
76987;BME280;65922;50.086;8.598;2023-03-01T03:56:56;101710;;;-0.6;72.3
76987;BME280;65922;50.086;8.598;2023-03-01T03:57:56;101700;;;-0.8;72.6
76987;BME280;65922;50.086;8.598;2023-03-01T03:58:56;101700;;;-0.8;72.8
76987;BME280;65922;50.086;8.598;2023-03-01T03:59:56;101700;;;-0.8;72.8
76987;BME280;65922;50.086;8.598;2023-03-01T04:00:56;101710;;;-0.8;72.7
76987;BME280;65922;50.086;8.598;2023-03-01T04:01:56;101700;;;-0.8;72.6
76987;BME280;65922;50.086;8.598;2023-03-01T04:02:56;101710;;;-0.8;72.6
76987;BME280;65922;50.086;8.598;2023-03-01T04:03:56;101700;;;-0.7;72.2
76987;BME280;65922;50.086;8.598;2023-03-01T04:04:56;101710;;;-0.8;72.3
76987;BME280;65922;50.086;8.598;2023-03-01T04:05:56;101700;;;-0.8;72.6
76987;BME280;65922;50.086;8.598;2023-03-01T04:06:56;101700;;;-0.7;72
76987;BME280;65922;50.086;8.598;2023-03-01T04:07:56;101700;;;-0.7;72.4
76987;BME280;65922;50.086;8.598;2023-03-01T04:08:56;101700;;;-0.7;72.2
76987;BME280;65922;50.086;8.598;2023-03-01T04:09:56;101700;;;-0.7;72.2
76987;BME280;65922;50.086;8.598;2023-03-01T04:10:57;101700;;;-0.7;72.1
76987;BME280;65922;50.086;8.598;2023-03-01T04:11:56;101710;;;-0.8;72.7
76987;BME280;65922;50.086;8.598;2023-03-01T04:12:56;101710;;;-0.8;72.6
76987;BME280;65922;50.086;8.598;2023-03-01T04:13:57;101710;;;-0.9;72.8
76987;BME280;65922;50.086;8.598;2023-03-01T04:14:56;101710;;;-0.8;72.8
76987;BME280;65922;50.086;8.598;2023-03-01T04:15:56;101710;;;-0.8;72.8
76987;BME280;65922;50.086;8.598;2023-03-01T04:16:56;101710;;;-0.7;72.6
76987;BME280;65922;50.086;8.598;2023-03-01T04:17:56;101710;;;-0.6;71.8
76987;BME280;65922;50.086;8.598;2023-03-01T04:18:56;101720;;;-0.6;71.8
76987;BME280;65922;50.086;8.598;2023-03-01T04:19:56;101710;;;-0.8;72.5
76987;BME280;65922;50.086;8.598;2023-03-01T04:20:56;101710;;;-0.8;72.7
76987;BME280;65922;50.086;8.598;2023-03-01T04:21:56;101710;;;-0.8;72.7
76987;BME280;65922;50.086;8.598;2023-03-01T04:22:57;101710;;;-0.8;72.5
76987;BME280;65922;50.086;8.598;2023-03-01T04:23:56;101710;;;-0.8;72.8
76987;BME280;65922;50.086;8.598;2023-03-01T04:24:56;101720;;;-0.9;73
76987;BME280;65922;50.086;8.598;2023-03-01T04:25:56;101710;;;-0.9;73.2
76987;BME280;65922;50.086;8.598;2023-03-01T04:26:56;101710;;;-0.9;73.2
76987;BME280;65922;50.086;8.598;2023-03-01T04:27:56;101710;;;-0.9;73.4
76987;BME280;65922;50.086;8.598;2023-03-01T04:28:56;101710;;;-0.9;73.2
76987;BME280;65922;50.086;8.598;2023-03-01T04:29:56;101710;;;-0.9;73.5
76987;BME280;65922;50.086;8.598;2023-03-01T04:30:57;101710;;;-1;73.5
76987;BME280;65922;50.086;8.598;2023-03-01T04:31:56;101710;;;-1.1;74
76987;BME280;65922;50.086;8.598;2023-03-01T04:32:56;101720;;;-0.9;73.4
76987;BME280;65922;50.086;8.598;2023-03-01T04:33:56;101710;;;-0.8;72.8
76987;BME280;65922;50.086;8.598;2023-03-01T04:34:56;101710;;;-0.9;73
76987;BME280;65922;50.086;8.598;2023-03-01T04:35:56;101720;;;-0.9;73
76987;BME280;65922;50.086;8.598;2023-03-01T04:36:56;101720;;;-0.9;72.9
76987;BME280;65922;50.086;8.598;2023-03-01T04:37:56;101710;;;-0.8;72.8
76987;BME280;65922;50.086;8.598;2023-03-01T04:38:56;101710;;;-0.9;73.1
76987;BME280;65922;50.086;8.598;2023-03-01T04:39:56;101710;;;-0.9;72.9
76987;BME280;65922;50.086;8.598;2023-03-01T04:40:56;101710;;;-0.9;72.9
76987;BME280;65922;50.086;8.598;2023-03-01T04:41:56;101700;;;-1;73.3
76987;BME280;65922;50.086;8.598;2023-03-01T04:42:56;101700;;;-0.9;73.4
76987;BME280;65922;50.086;8.598;2023-03-01T04:43:56;101700;;;-1;73.7
76987;BME280;65922;50.086;8.598;2023-03-01T04:44:56;101690;;;-1;73.5
76987;BME280;65922;50.086;8.598;2023-03-01T04:45:59;101700;;;-1;73.3
76987;BME280;65922;50.086;8.598;2023-03-01T04:46:56;101700;;;-0.9;72.9
76987;BME280;65922;50.086;8.598;2023-03-01T04:47:56;101700;;;-0.9;73.1
76987;BME280;65922;50.086;8.598;2023-03-01T04:48:56;101710;;;-1;73
76987;BME280;65922;50.086;8.598;2023-03-01T04:49:56;101720;;;-1;73.4
76987;BME280;65922;50.086;8.598;2023-03-01T04:50:56;101700;;;-0.9;73.1
76987;BME280;65922;50.086;8.598;2023-03-01T04:51:56;101700;;;-0.9;73
76987;BME280;65922;50.086;8.598;2023-03-01T04:52:56;101700;;;-0.9;72.8
76987;BME280;65922;50.086;8.598;2023-03-01T04:53:56;101700;;;-1.1;73.3
76987;BME280;65922;50.086;8.598;2023-03-01T04:54:56;101700;;;-1;73.5
76987;BME280;65922;50.086;8.598;2023-03-01T04:55:56;101710;;;-1;73.1
76987;BME280;65922;50.086;8.598;2023-03-01T04:56:56;101710;;;-1;73.1
76987;BME280;65922;50.086;8.598;2023-03-01T04:57:56;101710;;;-0.9;72.7
76987;BME280;65922;50.086;8.598;2023-03-01T04:58:56;101700;;;-0.9;72.5
76987;BME280;65922;50.086;8.598;2023-03-01T04:59:56;101700;;;-1;72.8
76987;BME280;65922;50.086;8.598;2023-03-01T05:00:56;101700;;;-1.1;73.4
76987;BME280;65922;50.086;8.598;2023-03-01T05:01:56;101710;;;-1;73.3
76987;BME280;65922;50.086;8.598;2023-03-01T05:02:56;101710;;;-0.9;72.9
76987;BME280;65922;50.086;8.598;2023-03-01T05:03:56;101710;;;-1;73.2
76987;BME280;65922;50.086;8.598;2023-03-01T05:04:56;101700;;;-1.1;73.5
76987;BME280;65922;50.086;8.598;2023-03-01T05:05:58;101700;;;-1;73.1
76987;BME280;65922;50.086;8.598;2023-03-01T05:06:56;101710;;;-1.1;73.6
76987;BME280;65922;50.086;8.598;2023-03-01T05:07:56;101700;;;-1.1;73.7
76987;BME280;65922;50.086;8.598;2023-03-01T05:08:56;101700;;;-1;73.6
76987;BME280;65922;50.086;8.598;2023-03-01T05:09:56;101690;;;-1.1;73.6
76987;BME280;65922;50.086;8.598;2023-03-01T05:10:56;101700;;;-1;73.4
76987;BME280;65922;50.086;8.598;2023-03-01T05:11:56;101690;;;-0.9;72.8
76987;BME280;65922;50.086;8.598;2023-03-01T05:12:56;101700;;;-0.9;72.7
76987;BME280;65922;50.086;8.598;2023-03-01T05:13:56;101700;;;-1;72.7
76987;BME280;65922;50.086;8.598;2023-03-01T05:14:56;101700;;;-1;73
76987;BME280;65922;50.086;8.598;2023-03-01T05:15:56;101700;;;-1;73
76987;BME280;65922;50.086;8.598;2023-03-01T05:16:56;101690;;;-0.9;72.8
76987;BME280;65922;50.086;8.598;2023-03-01T05:17:56;101690;;;-1;73.2
76987;BME280;65922;50.086;8.598;2023-03-01T05:18:56;101700;;;-1;73.1
76987;BME280;65922;50.086;8.598;2023-03-01T05:19:56;101700;;;-1;73
76987;BME280;65922;50.086;8.598;2023-03-01T05:21:01;101700;;;-0.9;72.9
76987;BME280;65922;50.086;8.598;2023-03-01T05:21:56;101690;;;-1;73.1
76987;BME280;65922;50.086;8.598;2023-03-01T05:22:56;101690;;;-1;73.3
76987;BME280;65922;50.086;8.598;2023-03-01T05:23:56;101690;;;-1;73.3
76987;BME280;65922;50.086;8.598;2023-03-01T05:24:56;101690;;;-1;73.4
76987;BME280;65922;50.086;8.598;2023-03-01T05:25:57;101690;;;-1.1;73.6
76987;BME280;65922;50.086;8.598;2023-03-01T05:26:56;101700;;;-1;73.1
76987;BME280;65922;50.086;8.598;2023-03-01T05:27:56;101690;;;-0.9;72.7
76987;BME280;65922;50.086;8.598;2023-03-01T05:28:56;101700;;;-1;73.1
76987;BME280;65922;50.086;8.598;2023-03-01T05:29:56;101700;;;-0.9;72.9
76987;BME280;65922;50.086;8.598;2023-03-01T05:30:56;101690;;;-0.9;72.6
76987;BME280;65922;50.086;8.598;2023-03-01T05:31:57;101700;;;-1;73.2
76987;BME280;65922;50.086;8.598;2023-03-01T05:32:56;101690;;;-1;73.3
76987;BME280;65922;50.086;8.598;2023-03-01T05:33:56;101690;;;-1;73.4
76987;BME280;65922;50.086;8.598;2023-03-01T05:34:56;101690;;;-1;73.4
76987;BME280;65922;50.086;8.598;2023-03-01T05:35:59;101700;;;-1;73.5
76987;BME280;65922;50.086;8.598;2023-03-01T05:36:56;101700;;;-1;73.1
76987;BME280;65922;50.086;8.598;2023-03-01T05:37:56;101690;;;-0.9;73.1